createdAt,value
2023-04-02T00:00:19.483Z,69.39
2023-04-02T00:02:50.337Z,69.60
2023-04-02T00:05:50.120Z,69.66
2023-04-02T00:08:27.040Z,69.98
2023-04-02T00:10:57.906Z,69.77
2023-04-02T00:13:32.993Z,69.85
2023-04-02T00:16:03.450Z,69.94
2023-04-02T00:18:32.078Z,70.03
2023-04-02T00:21:10.136Z,70.14
2023-04-02T00:23:40.390Z,70.22
2023-04-02T00:26:23.085Z,70.32
2023-04-02T00:28:52.163Z,70.52
2023-04-02T00:31:21.235Z,70.50
2023-04-02T00:33:50.376Z,70.88
2023-04-02T00:36:22.145Z,71.00
2023-04-02T00:38:50.528Z,71.14
2023-04-02T00:41:23.552Z,71.52
2023-04-02T00:43:53.819Z,71.54
2023-04-02T00:46:25.954Z,71.66
2023-04-02T00:48:57.539Z,71.73
2023-04-02T00:51:31.182Z,71.69
2023-04-02T00:54:01.902Z,71.76
2023-04-02T00:56:33.582Z,71.88
2023-04-02T00:59:01.775Z,71.93
2023-04-02T01:01:37.008Z,71.94
2023-04-02T01:04:26.860Z,71.99
2023-04-02T01:06:56.737Z,72.03
2023-04-02T01:09:34.899Z,72.16
2023-04-02T01:12:35.136Z,72.16
2023-04-02T01:15:09.850Z,71.85
2023-04-02T01:17:49.682Z,71.68
2023-04-02T01:20:56.380Z,71.71
2023-04-02T01:23:32.160Z,71.80
2023-04-02T01:26:04.466Z,71.73
2023-04-02T01:28:35.418Z,71.65
2023-04-02T01:31:05.177Z,71.86
2023-04-02T01:33:35.826Z,71.94
2023-04-02T01:36:08.833Z,71.74
2023-04-02T01:38:40.421Z,72.00
2023-04-02T01:41:14.229Z,72.14
2023-04-02T01:43:47.835Z,72.27
2023-04-02T01:46:28.514Z,72.32
2023-04-02T01:48:57.699Z,72.60
2023-04-02T01:51:31.945Z,72.69
2023-04-02T01:54:01.927Z,72.74
2023-04-02T01:56:31.520Z,72.99
2023-04-02T01:59:00.444Z,73.21
2023-04-02T02:01:34.652Z,73.46
2023-04-02T02:04:03.320Z,73.61
2023-04-02T02:06:31.873Z,73.74
2023-04-02T02:09:03.717Z,73.80
2023-04-02T02:11:33.830Z,74.00
2023-04-02T02:14:03.952Z,74.01
2023-04-02T02:16:41.665Z,73.87
2023-04-02T02:19:20.254Z,73.80
2023-04-02T02:21:51.632Z,73.92
2023-04-02T02:24:22.377Z,73.68
2023-04-02T02:26:55.153Z,73.64
2023-04-02T02:29:23.737Z,73.62
2023-04-02T02:31:56.306Z,73.55
2023-04-02T02:34:30.490Z,73.40
2023-04-02T02:37:04.093Z,73.57
2023-04-02T02:39:36.200Z,73.30
2023-04-02T02:42:08.095Z,73.37
2023-04-02T02:44:39.224Z,73.30
2023-04-02T02:47:13.894Z,73.11
2023-04-02T02:49:44.561Z,73.15
2023-04-02T02:52:17.967Z,73.07
2023-04-02T02:54:48.393Z,72.81
2023-04-02T02:57:21.686Z,72.80
2023-04-02T02:59:51.144Z,72.66
2023-04-02T03:02:20.916Z,72.51
2023-04-02T03:04:50.782Z,72.47
2023-04-02T03:07:19.310Z,72.42
2023-04-02T03:09:54.804Z,72.23
2023-04-02T03:12:41.639Z,72.38
2023-04-02T03:15:18.115Z,72.40
2023-04-02T03:17:52.655Z,72.36
2023-04-02T03:20:27.133Z,72.32
2023-04-02T03:23:00.934Z,72.44
2023-04-02T03:25:37.193Z,72.41
2023-04-02T03:28:09.100Z,72.37
2023-04-02T03:30:41.702Z,72.34
2023-04-02T03:33:15.048Z,72.39
2023-04-02T03:35:47.570Z,72.25
2023-04-02T03:38:19.345Z,72.15
2023-04-02T03:40:56.564Z,71.88
2023-04-02T03:43:26.611Z,71.99
2023-04-02T03:45:58.831Z,72.00
2023-04-02T03:48:33.140Z,71.91
2023-04-02T03:51:05.191Z,72.00
2023-04-02T03:53:33.532Z,71.77
2023-04-02T03:56:02.644Z,71.66
2023-04-02T03:58:38.238Z,71.40
2023-04-02T04:01:10.168Z,71.47
2023-04-02T04:03:42.832Z,71.35
2023-04-02T04:06:14.867Z,71.39
2023-04-02T04:08:46.580Z,71.36
2023-04-02T04:11:17.210Z,71.54
2023-04-02T04:13:48.915Z,71.81
2023-04-02T04:16:20.672Z,71.66
2023-04-02T04:18:57.169Z,71.78
2023-04-02T04:21:31.384Z,71.95
2023-04-02T04:24:04.615Z,72.12
2023-04-02T04:26:40.620Z,72.06
2023-04-02T04:29:32.690Z,72.27
2023-04-02T04:32:16.832Z,72.34
2023-04-02T04:34:53.684Z,72.32
2023-04-02T04:37:26.316Z,72.57
2023-04-02T04:39:58.122Z,72.60
2023-04-02T04:42:31.118Z,72.63
2023-04-02T04:45:04.880Z,72.70
2023-04-02T04:47:36.399Z,72.87
2023-04-02T04:50:09.856Z,72.89
2023-04-02T04:52:40.474Z,73.20
2023-04-02T04:55:27.114Z,73.02
2023-04-02T04:58:00.128Z,73.06
2023-04-02T05:00:34.407Z,73.17
2023-04-02T05:03:09.196Z,73.01
2023-04-02T05:05:41.554Z,73.15
2023-04-02T05:08:14.872Z,73.21
2023-04-02T05:10:47.455Z,73.38
2023-04-02T05:13:19.724Z,73.21
2023-04-02T05:15:52.327Z,73.36
2023-04-02T05:18:26.165Z,72.97
2023-04-02T05:21:01.398Z,73.27
2023-04-02T05:23:30.692Z,73.24
2023-04-02T05:26:04.328Z,73.22
2023-04-02T05:28:36.106Z,73.36
2023-04-02T05:31:08.494Z,73.61
2023-04-02T05:33:37.274Z,73.26
2023-04-02T05:36:09.110Z,73.23
2023-04-02T05:38:39.718Z,72.96
2023-04-02T05:41:16.079Z,72.96
2023-04-02T05:43:47.481Z,72.74
2023-04-02T05:46:18.519Z,72.54
2023-04-02T05:48:50.411Z,72.34
2023-04-02T05:51:24.722Z,72.37
2023-04-02T05:53:55.087Z,72.14
2023-04-02T05:56:26.258Z,71.84
2023-04-02T05:59:00.921Z,70.95
2023-04-02T06:01:34.506Z,70.04
2023-04-02T06:04:09.422Z,68.84
2023-04-02T06:06:52.445Z,67.74
2023-04-02T06:09:25.363Z,66.80
2023-04-02T06:11:58.028Z,66.13
2023-04-02T06:14:26.198Z,65.51
2023-04-02T06:16:54.506Z,65.01
2023-04-02T06:19:26.894Z,64.75
2023-04-02T06:22:01.151Z,64.33
2023-04-02T06:24:31.085Z,64.22
2023-04-02T06:27:02.967Z,63.50
2023-04-02T06:29:38.418Z,63.24
2023-04-02T06:32:08.328Z,62.79
2023-04-02T06:34:39.082Z,62.23
2023-04-02T06:37:17.376Z,62.63
2023-04-02T06:39:45.614Z,62.30
2023-04-02T06:42:15.516Z,62.10
2023-04-02T06:44:43.924Z,61.80
2023-04-02T06:47:18.068Z,61.45
2023-04-02T06:49:51.193Z,61.31
2023-04-02T06:52:26.157Z,61.39
2023-04-02T06:54:54.406Z,61.61
2023-04-02T06:57:22.911Z,61.41
2023-04-02T06:59:51.560Z,61.16
2023-04-02T07:02:30.091Z,61.38
2023-04-02T07:05:03.735Z,60.86
2023-04-02T07:07:33.655Z,60.76
2023-04-02T07:10:01.827Z,60.51
2023-04-02T07:12:29.997Z,60.27
2023-04-02T07:14:58.241Z,60.04
2023-04-02T07:17:26.513Z,59.49
2023-04-02T07:19:54.871Z,59.37
2023-04-02T07:22:23.754Z,59.12
2023-04-02T07:24:53.619Z,59.08
2023-04-02T07:27:21.852Z,58.56
2023-04-02T07:29:50.089Z,58.54
2023-04-02T07:32:19.556Z,58.42
2023-04-02T07:34:48.941Z,57.71
2023-04-02T07:37:17.230Z,56.89
2023-04-02T07:39:45.378Z,56.70
2023-04-02T07:42:14.978Z,56.46
2023-04-02T07:44:43.179Z,56.50
2023-04-02T07:47:11.557Z,56.02
2023-04-02T07:49:41.838Z,55.47
2023-04-02T07:52:10.100Z,54.89
2023-04-02T07:54:38.359Z,55.34
2023-04-02T07:57:06.847Z,55.43
2023-04-02T07:59:36.512Z,55.34
2023-04-02T08:02:04.720Z,54.48
2023-04-02T08:04:33.039Z,54.01
2023-04-02T08:07:01.657Z,54.32
2023-04-02T08:09:29.863Z,53.24
2023-04-02T08:11:58.008Z,52.53
2023-04-02T08:14:26.322Z,52.30
2023-04-02T08:16:56.932Z,51.98
2023-04-02T08:19:25.228Z,51.65
2023-04-02T08:21:53.751Z,52.32
2023-04-02T08:24:22.023Z,50.98
2023-04-02T08:26:51.417Z,50.85
2023-04-02T08:29:19.591Z,50.53
2023-04-02T08:31:48.041Z,50.67
2023-04-02T08:34:17.601Z,50.34
2023-04-02T08:36:46.234Z,49.25
2023-04-02T08:39:14.743Z,48.96
2023-04-02T08:41:48.160Z,48.78
2023-04-02T08:44:32.404Z,48.64
2023-04-02T08:47:04.066Z,48.59
2023-04-02T08:49:37.281Z,48.90
2023-04-02T08:52:05.458Z,49.00
2023-04-02T08:54:37.994Z,49.14
2023-04-02T08:57:12.681Z,48.00
2023-04-02T08:59:42.215Z,48.67
2023-04-02T09:02:28.160Z,48.89
2023-04-02T09:04:59.780Z,47.93
2023-04-02T09:07:28.589Z,47.52
2023-04-02T09:09:58.115Z,47.52
2023-04-02T09:12:29.215Z,47.15
2023-04-02T09:15:07.619Z,47.37
2023-04-02T09:17:50.422Z,47.76
2023-04-02T09:20:26.297Z,47.66
2023-04-02T09:22:55.023Z,48.23
2023-04-02T09:25:26.996Z,48.61
2023-04-02T09:27:57.215Z,48.09
2023-04-02T09:30:38.781Z,46.66
2023-04-02T09:33:09.233Z,47.80
2023-04-02T09:35:54.490Z,46.64
2023-04-02T09:38:24.537Z,46.79
2023-04-02T09:40:58.444Z,47.18
2023-04-02T09:43:28.164Z,46.20
2023-04-02T09:45:58.718Z,45.98
2023-04-02T09:48:30.514Z,46.69
2023-04-02T09:51:12.422Z,46.84
2023-04-02T09:53:42.757Z,47.44
2023-04-02T09:56:14.226Z,47.37
2023-04-02T09:58:44.109Z,47.62
2023-04-02T10:01:31.485Z,47.22
2023-04-02T10:04:00.406Z,45.64
2023-04-02T10:06:31.944Z,43.89
2023-04-02T10:09:19.619Z,43.13
2023-04-02T10:11:48.218Z,42.87
2023-04-02T10:14:19.933Z,43.17
2023-04-02T10:16:51.623Z,42.93
2023-04-02T10:19:26.476Z,43.43
2023-04-02T10:21:57.199Z,42.96
2023-04-02T10:24:28.699Z,43.57
2023-04-02T10:27:03.611Z,42.51
2023-04-02T10:29:48.930Z,43.19
2023-04-02T10:32:21.265Z,43.96
2023-04-02T10:34:57.128Z,44.60
2023-04-02T10:38:03.894Z,44.87
2023-04-02T10:40:36.102Z,44.16
2023-04-02T10:43:31.856Z,44.78
2023-04-02T10:46:02.163Z,44.39
2023-04-02T10:48:38.557Z,42.87
2023-04-02T10:51:09.316Z,42.67
2023-04-02T10:53:41.183Z,43.10
2023-04-02T10:56:12.643Z,42.80
2023-04-02T10:58:46.853Z,44.28
2023-04-02T11:01:19.126Z,44.14
2023-04-02T11:03:53.096Z,44.06
2023-04-02T11:06:24.055Z,43.82
2023-04-02T11:08:53.833Z,44.40
2023-04-02T11:11:24.603Z,43.91
2023-04-02T11:13:56.486Z,44.81
2023-04-02T11:16:25.152Z,44.08
2023-04-02T11:19:10.501Z,42.67
2023-04-02T11:21:54.948Z,42.98
2023-04-02T11:24:38.021Z,44.70
2023-04-02T11:27:23.710Z,45.40
2023-04-02T11:29:53.882Z,46.16
2023-04-02T11:32:35.031Z,45.93
2023-04-02T11:35:19.505Z,46.26
2023-04-02T11:37:47.577Z,45.67
2023-04-02T11:40:42.145Z,45.74
2023-04-02T11:43:47.809Z,45.24
2023-04-02T11:46:48.616Z,45.44
2023-04-02T11:49:40.263Z,45.33
2023-04-02T11:52:29.708Z,45.29
2023-04-02T11:55:28.823Z,44.48
2023-04-02T11:58:33.225Z,43.52
2023-04-02T12:01:38.473Z,43.43
2023-04-02T12:04:31.427Z,41.70
2023-04-02T12:07:20.845Z,39.79
2023-04-02T12:09:52.516Z,39.95
2023-04-02T12:12:28.483Z,40.61
2023-04-02T12:14:57.615Z,40.50
2023-04-02T12:17:30.382Z,41.19
2023-04-02T12:20:04.366Z,40.34
2023-04-02T12:22:34.955Z,40.03
2023-04-02T12:25:07.588Z,40.84
2023-04-02T12:27:38.209Z,40.65
2023-04-02T12:30:15.746Z,41.37
2023-04-02T12:32:44.074Z,41.95
2023-04-02T12:35:29.041Z,41.08
2023-04-02T12:37:58.015Z,41.16
2023-04-02T12:40:27.248Z,41.21
2023-04-02T12:42:55.627Z,41.92
2023-04-02T12:45:27.158Z,42.74
2023-04-02T12:47:57.086Z,42.24
2023-04-02T12:50:26.946Z,42.93
2023-04-02T12:52:58.384Z,43.54
2023-04-02T12:55:28.115Z,43.22
2023-04-02T12:57:57.463Z,43.17
2023-04-02T13:00:36.994Z,43.73
2023-04-02T13:03:29.036Z,44.02
2023-04-02T13:05:58.713Z,44.08
2023-04-02T13:08:29.011Z,44.23
2023-04-02T13:10:58.913Z,43.53
2023-04-02T13:13:30.253Z,43.25
2023-04-02T13:16:07.433Z,43.78
2023-04-02T13:18:37.193Z,43.44
2023-04-02T13:21:07.040Z,44.20
2023-04-02T13:23:37.928Z,44.45
2023-04-02T13:26:22.273Z,45.49
2023-04-02T13:28:58.306Z,45.63
2023-04-02T13:31:26.543Z,44.96
2023-04-02T13:33:54.746Z,44.07
2023-04-02T13:36:24.249Z,43.88
2023-04-02T13:38:52.298Z,44.41
2023-04-02T13:41:24.009Z,45.13
2023-04-02T13:43:52.388Z,45.20
2023-04-02T13:46:23.208Z,45.23
2023-04-02T13:48:52.380Z,45.31
2023-04-02T13:51:22.432Z,45.33
2023-04-02T13:53:55.019Z,46.13
2023-04-02T13:56:24.532Z,46.46
2023-04-02T13:58:53.164Z,45.65
2023-04-02T14:01:24.036Z,45.35
2023-04-02T14:03:52.295Z,45.21
2023-04-02T14:06:24.639Z,45.10
2023-04-02T14:09:02.812Z,45.22
2023-04-02T14:11:42.507Z,44.57
2023-04-02T14:14:44.223Z,44.08
2023-04-02T14:17:18.108Z,45.24
2023-04-02T14:19:55.823Z,45.78
2023-04-02T14:22:35.530Z,45.79
2023-04-02T14:25:12.581Z,46.45
2023-04-02T14:27:45.928Z,46.92
2023-04-02T14:30:18.737Z,47.69
2023-04-02T14:32:54.803Z,48.14
2023-04-02T14:35:28.447Z,47.94
2023-04-02T14:38:04.013Z,48.56
2023-04-02T14:40:38.726Z,49.30
2023-04-02T14:43:11.593Z,48.78
2023-04-02T14:45:50.089Z,48.79
2023-04-02T14:48:29.115Z,49.15
2023-04-02T14:51:00.936Z,49.07
2023-04-02T14:53:34.513Z,49.61
2023-04-02T14:56:06.695Z,49.55
2023-04-02T14:58:38.038Z,48.94
2023-04-02T15:01:11.950Z,48.76
2023-04-02T15:03:44.695Z,48.51
2023-04-02T15:06:16.136Z,49.25
2023-04-02T15:08:58.498Z,49.40
2023-04-02T15:11:34.720Z,49.33
2023-04-02T15:14:06.206Z,48.90
2023-04-02T15:16:36.439Z,49.03
2023-04-02T15:19:11.075Z,49.12
2023-04-02T15:21:57.505Z,49.41
2023-04-02T15:24:35.047Z,49.53
2023-04-02T15:27:24.061Z,49.76
2023-04-02T15:29:58.661Z,50.79
2023-04-02T15:32:31.375Z,51.35
2023-04-02T15:35:06.619Z,51.29
2023-04-02T15:37:36.741Z,50.98
2023-04-02T15:40:17.211Z,51.18
2023-04-02T15:42:49.127Z,51.32
2023-04-02T15:45:31.149Z,52.22
2023-04-02T15:48:12.961Z,52.98
2023-04-02T15:50:48.222Z,53.92
2023-04-02T15:53:25.690Z,53.99
2023-04-02T15:56:00.873Z,53.43
2023-04-02T15:58:41.328Z,53.09
2023-04-02T16:01:13.167Z,53.26
2023-04-02T16:03:59.740Z,53.66
2023-04-02T16:06:29.038Z,53.88
2023-04-02T16:09:08.435Z,53.99
2023-04-02T16:11:36.758Z,53.08
2023-04-02T16:14:17.819Z,52.00
2023-04-02T16:16:47.441Z,51.75
2023-04-02T16:19:26.622Z,51.72
2023-04-02T16:22:00.050Z,50.59
2023-04-02T16:24:28.145Z,49.50
2023-04-02T16:27:00.008Z,48.11
2023-04-02T16:32:32.916Z,46.65
2023-04-02T16:35:31.128Z,45.94
2023-04-02T16:37:57.539Z,45.72
2023-04-02T16:40:35.482Z,45.82
2023-04-02T16:43:12.548Z,46.46
2023-04-02T16:45:48.957Z,45.90
2023-04-02T16:48:25.914Z,46.05
2023-04-02T16:51:02.505Z,45.34
2023-04-02T16:53:38.719Z,45.36
2023-04-02T16:56:34.949Z,45.35
2023-04-02T16:59:11.394Z,46.00
2023-04-02T17:01:47.504Z,46.10
2023-04-02T17:04:48.166Z,46.23
2023-04-02T17:07:28.316Z,46.32
2023-04-02T17:10:03.646Z,46.77
2023-04-02T17:12:36.824Z,47.24
2023-04-02T17:15:20.608Z,48.00
2023-04-02T17:17:58.337Z,48.59
2023-04-02T17:20:27.224Z,49.04
2023-04-02T17:22:56.762Z,49.76
2023-04-02T17:25:26.896Z,50.00
2023-04-02T17:27:57.190Z,50.54
2023-04-02T17:30:37.183Z,50.75
2023-04-02T17:33:12.491Z,51.16
2023-04-02T17:35:48.988Z,51.56
2023-04-02T17:38:23.235Z,52.09
2023-04-02T17:40:55.140Z,52.45
2023-04-02T17:43:35.568Z,53.05
2023-04-02T17:46:08.919Z,53.69
2023-04-02T17:48:45.816Z,54.27
2023-04-02T17:51:19.188Z,54.45
2023-04-02T17:53:57.948Z,54.01
2023-04-02T17:56:58.665Z,54.03
2023-04-02T17:59:36.572Z,54.16
2023-04-02T18:02:17.823Z,54.02
2023-04-02T18:04:52.575Z,54.41
2023-04-02T18:07:29.406Z,54.53
2023-04-02T18:10:04.415Z,54.59
2023-04-02T18:12:51.848Z,54.99
2023-04-02T18:15:39.607Z,55.51
2023-04-02T18:18:14.902Z,55.79
2023-04-02T18:20:51.327Z,55.78
2023-04-02T18:23:28.131Z,55.74
2023-04-02T18:26:05.090Z,55.96
2023-04-02T18:28:42.074Z,56.21
2023-04-02T18:31:19.468Z,56.33
2023-04-02T18:34:09.209Z,56.37
2023-04-02T18:36:46.844Z,56.67
2023-04-02T18:39:20.158Z,56.70
2023-04-02T18:41:55.966Z,56.23
2023-04-02T18:44:40.341Z,56.55
2023-04-02T18:47:16.274Z,56.85
2023-04-02T18:49:49.597Z,57.09
2023-04-02T18:52:21.380Z,57.72
2023-04-02T18:54:52.636Z,57.49
2023-04-02T18:57:25.117Z,57.39
2023-04-02T18:59:58.438Z,57.58
2023-04-02T19:02:34.204Z,58.09
2023-04-02T19:05:04.781Z,58.41
2023-04-02T19:07:37.230Z,58.92
2023-04-02T19:10:14.983Z,59.47
2023-04-02T19:12:43.157Z,60.31
2023-04-02T19:15:21.360Z,60.47
2023-04-02T19:17:57.751Z,60.52
2023-04-02T19:20:32.379Z,60.94
2023-04-02T19:23:12.905Z,61.35
2023-04-02T19:25:51.243Z,62.04
2023-04-02T19:28:23.421Z,62.66
2023-04-02T19:31:00.363Z,63.13
2023-04-02T19:33:49.089Z,63.34
2023-04-02T19:36:31.183Z,63.88
2023-04-02T19:39:12.669Z,64.30
2023-04-02T19:41:44.206Z,65.10
2023-04-02T19:44:14.090Z,65.64
2023-04-02T19:46:42.571Z,65.80
2023-04-02T19:49:14.545Z,66.02
2023-04-02T19:51:42.715Z,66.11
2023-04-02T19:54:12.768Z,66.49
2023-04-02T19:56:42.459Z,66.50
2023-04-02T20:01:45.538Z,67.09
2023-04-02T20:04:13.865Z,67.30
2023-04-02T20:06:42.195Z,67.60
2023-04-02T20:09:10.601Z,67.91
2023-04-02T20:11:40.254Z,68.49
2023-04-02T20:14:08.302Z,68.93
2023-04-02T20:16:36.951Z,69.32
2023-04-02T20:19:05.058Z,69.34
2023-04-02T20:21:38.218Z,69.10
2023-04-02T20:24:07.153Z,68.87
2023-04-02T20:26:35.385Z,68.96
2023-04-02T20:29:05.353Z,69.08
2023-04-02T20:31:34.879Z,69.39
2023-04-02T20:34:05.418Z,69.57
2023-04-02T20:36:33.793Z,69.73
2023-04-02T20:39:01.901Z,69.78
2023-04-02T20:41:29.997Z,69.82
2023-04-02T20:43:58.350Z,69.82
2023-04-02T20:46:27.910Z,69.69
2023-04-02T20:48:55.985Z,70.09
2023-04-02T20:51:24.054Z,70.31
2023-04-02T20:53:52.223Z,70.21
2023-04-02T20:56:22.144Z,70.06
2023-04-02T20:58:50.745Z,70.02
2023-04-02T21:01:20.753Z,70.25
2023-04-02T21:03:50.362Z,70.48
2023-04-02T21:06:20.268Z,70.84
2023-04-02T21:08:49.104Z,71.01
2023-04-02T21:11:17.779Z,71.03
2023-04-02T21:13:46.529Z,71.32
2023-04-02T21:16:17.136Z,71.53
2023-04-02T21:18:45.416Z,71.75
2023-04-02T21:21:15.588Z,71.47
2023-04-02T21:23:45.197Z,70.96
2023-04-02T21:26:15.043Z,70.78
2023-04-02T21:28:43.912Z,71.13
2023-04-02T21:31:15.567Z,71.49
2023-04-02T21:33:46.143Z,71.87
2023-04-02T21:36:17.691Z,72.12
2023-04-02T21:38:47.325Z,72.56
2023-04-02T21:41:17.363Z,73.03
2023-04-02T21:43:48.331Z,73.31
2023-04-02T21:46:16.801Z,73.59
2023-04-02T21:48:45.012Z,73.58
2023-04-02T21:51:16.592Z,73.56
2023-04-02T21:53:45.328Z,73.61
2023-04-02T21:56:15.455Z,73.61
2023-04-02T21:58:44.392Z,73.54
2023-04-02T22:01:20.420Z,73.23
2023-04-02T22:03:52.465Z,73.18
2023-04-02T22:06:22.852Z,73.20
2023-04-02T22:08:54.261Z,73.36
2023-04-02T22:11:24.404Z,73.29
2023-04-02T22:13:52.945Z,73.56
2023-04-02T22:16:22.831Z,73.47
2023-04-02T22:18:52.336Z,73.31
2023-04-02T22:21:21.860Z,74.11
2023-04-02T22:23:50.348Z,74.36
2023-04-02T22:26:20.748Z,74.40
2023-04-02T22:28:48.829Z,74.56
2023-04-02T22:31:18.819Z,74.50
2023-04-02T22:33:47.642Z,74.55
2023-04-02T22:36:16.937Z,74.60
2023-04-02T22:38:46.528Z,74.64
2023-04-02T22:41:16.295Z,74.63
2023-04-02T22:43:46.016Z,74.48
2023-04-02T22:46:15.483Z,74.07
2023-04-02T22:48:44.480Z,73.74
2023-04-02T22:51:14.389Z,73.73
2023-04-02T22:53:42.985Z,73.53
2023-04-02T22:56:14.101Z,73.57
2023-04-02T22:58:42.739Z,73.71
2023-04-02T23:01:13.692Z,73.83
2023-04-02T23:03:41.858Z,74.12
2023-04-02T23:06:11.558Z,74.18
2023-04-02T23:08:40.475Z,74.04
2023-04-02T23:11:09.896Z,74.26
2023-04-02T23:13:40.418Z,74.36
2023-04-02T23:16:09.910Z,74.90
2023-04-02T23:18:39.059Z,75.13
2023-04-02T23:21:07.791Z,75.14
2023-04-02T23:23:36.338Z,74.98
2023-04-02T23:26:09.343Z,75.11
2023-04-02T23:28:39.684Z,75.35
2023-04-02T23:31:10.053Z,75.42
2023-04-02T23:33:38.284Z,75.57
2023-04-02T23:36:10.385Z,75.65
2023-04-02T23:38:38.498Z,75.79
2023-04-02T23:41:06.595Z,75.56
2023-04-02T23:43:34.699Z,75.73
2023-04-02T23:46:04.187Z,75.56
2023-04-02T23:48:32.266Z,75.95
2023-04-02T23:51:00.662Z,76.85
2023-04-02T23:53:28.749Z,77.36
2023-04-02T23:55:56.831Z,77.51
2023-04-02T23:58:25.006Z,78.21
